Time;durP1;ratioP1;P1;durP2;ratioP2;P2;SDS_P1;SDS_P2;PMS_P1;PMS_P2;Temp;Humidity;BMP_temperature;BMP_pressure;BME280_temperature;BME280_humidity;BME280_pressure;Samples;Min_cycle;Max_cycle;Signal;HPM_P1;HPM_P2
2022/10/28 00:02:21;;;;;;;11.68;9.43;;;;;;;13.37;100.00;101052.25;5020532;28;20213;-75
2022/10/28 00:04:49;;;;;;;16.10;9.10;;;;;;;13.41;100.00;101053.84;5024966;28;20266;-75
2022/10/28 00:07:15;;;;;;;22.05;10.10;;;;;;;13.33;100.00;101073.13;5023929;28;20226;-74
2022/10/28 00:09:42;;;;;;;20.17;9.38;;;;;;;13.28;100.00;101079.72;5023416;28;20213;-75
2022/10/28 00:12:08;;;;;;;14.40;9.75;;;;;;;13.20;100.00;101069.19;5023226;28;20198;-76
2022/10/28 00:14:35;;;;;;;14.43;9.68;;;;;;;13.21;100.00;101068.28;5020474;28;20321;-76
2022/10/28 00:17:02;;;;;;;14.55;10.40;;;;;;;13.03;100.00;101056.47;5017915;28;20257;-76
2022/10/28 00:19:28;;;;;;;12.20;9.38;;;;;;;13.09;100.00;101050.78;5017962;28;20213;-75
2022/10/28 00:21:56;;;;;;;14.52;10.55;;;;;;;13.14;100.00;101064.09;5024978;28;20203;-75
2022/10/28 00:24:23;;;;;;;16.48;9.43;;;;;;;13.10;100.00;101071.47;5039449;22;20233;-75
2022/10/28 00:26:50;;;;;;;17.90;10.07;;;;;;;13.15;100.00;101072.13;5032421;28;20201;-74
2022/10/28 00:29:18;;;;;;;18.73;9.88;;;;;;;13.19;100.00;101066.59;5032309;28;20194;-72
2022/10/28 00:31:46;;;;;;;19.48;9.00;;;;;;;13.16;100.00;101078.44;5033110;28;20209;-74
2022/10/28 00:34:15;;;;;;;14.20;9.70;;;;;;;13.18;100.00;101071.09;5032429;28;20275;-76
2022/10/28 00:36:43;;;;;;;15.25;9.07;;;;;;;13.23;100.00;101073.59;5033301;28;20601;-74
2022/10/28 00:39:13;;;;;;;11.05;9.18;;;;;;;13.25;100.00;101077.09;5033367;28;20209;-74
2022/10/28 00:41:42;;;;;;;14.95;9.35;;;;;;;13.29;100.00;101067.94;5033540;28;20213;-74
2022/10/28 00:44:48;;;;;;;11.77;8.15;;;;;;;13.17;100.00;101074.75;5033135;28;20235;-72
2022/10/28 00:47:22;;;;;;;13.00;9.18;;;;;;;13.26;100.00;101073.47;4992282;28;20751;-72
2022/10/28 00:49:50;;;;;;;14.88;8.90;;;;;;;13.25;100.00;101074.41;4994692;28;20189;-72
2022/10/28 00:52:21;;;;;;;14.70;8.95;;;;;;;13.31;100.00;101087.69;4992187;28;20207;-74
2022/10/28 00:54:51;;;;;;;15.57;9.43;;;;;;;13.33;100.00;101091.19;4995484;28;20223;-74
2022/10/28 00:57:22;;;;;;;14.43;9.43;;;;;;;13.43;100.00;101088.94;4991637;28;20235;-75
2022/10/28 00:59:51;;;;;;;9.82;8.50;;;;;;;13.47;100.00;101079.72;4992465;28;20191;-76
2022/10/28 01:02:18;;;;;;;16.58;8.95;;;;;;;13.38;100.00;101077.47;4994634;28;20200;-76
2022/10/28 01:04:47;;;;;;;11.65;7.57;;;;;;;13.43;100.00;101068.19;4994312;28;20253;-72
2022/10/28 01:07:14;;;;;;;14.13;8.07;;;;;;;13.48;100.00;101063.44;4994096;28;20698;-73
2022/10/28 01:09:41;;;;;;;10.60;8.05;;;;;;;13.49;100.00;101057.06;4993869;28;20203;-72
2022/10/28 01:12:19;;;;;;;8.90;7.32;;;;;;;13.51;100.00;101057.88;4995072;28;20732;-73
2022/10/28 01:15:00;;;;;;;13.15;7.40;;;;;;;13.50;100.00;101061.53;4994321;28;20755;-74
2022/10/28 01:17:43;;;;;;;10.93;7.60;;;;;;;13.45;100.00;101068.09;4993876;28;20811;-76
2022/10/28 01:20:38;;;;;;;11.50;7.93;;;;;;;13.53;100.00;101061.38;4993853;28;20199;-74
2022/10/28 01:23:12;;;;;;;11.43;8.57;;;;;;;13.48;100.00;101058.03;5001627;28;20587;-72
2022/10/28 01:26:26;;;;;;;13.15;8.88;;;;;;;13.35;100.00;101046.88;5036339;28;20190;-75
2022/10/28 01:29:19;;;;;;;12.75;8.65;;;;;;;13.45;100.00;101041.03;4984324;28;20195;-73
2022/10/28 01:31:53;;;;;;;14.82;8.35;;;;;;;13.59;100.00;101040.38;4983542;28;20613;-73
2022/10/28 01:34:29;;;;;;;15.77;9.55;;;;;;;13.64;100.00;101036.53;4980527;28;20230;-73
2022/10/28 01:36:59;;;;;;;15.70;9.30;;;;;;;13.70;100.00;101062.41;4977691;28;20219;-72
2022/10/28 01:39:33;;;;;;;13.95;9.30;;;;;;;13.67;100.00;101070.69;4981317;28;20211;-72
2022/10/28 01:42:08;;;;;;;11.80;9.70;;;;;;;13.68;100.00;101062.50;4981940;28;20195;-72
2022/10/28 01:44:46;;;;;;;12.43;8.10;;;;;;;13.62;100.00;101048.38;4988266;28;20255;-73
2022/10/28 01:47:19;;;;;;;10.52;8.43;;;;;;;13.64;100.00;101058.19;4994848;28;20320;-72
2022/10/28 01:49:50;;;;;;;15.15;9.38;;;;;;;13.61;100.00;101050.19;4987945;28;20203;-72
2022/10/28 01:52:21;;;;;;;15.75;9.05;;;;;;;13.65;100.00;101061.75;4987933;28;20200;-73
2022/10/28 01:54:53;;;;;;;12.82;8.63;;;;;;;13.62;100.00;101054.66;4994598;28;20284;-72
2022/10/28 01:57:22;;;;;;;14.23;8.32;;;;;;;13.51;100.00;101041.63;4997620;28;20231;-71
2022/10/28 01:59:49;;;;;;;12.15;8.43;;;;;;;13.56;100.00;101044.13;4997530;28;20194;-72
2022/10/28 02:02:18;;;;;;;10.32;7.75;;;;;;;13.52;100.00;101045.22;5004889;28;20198;-72
2022/10/28 02:04:45;;;;;;;16.23;8.48;;;;;;;13.59;100.00;101041.28;5046723;28;20222;-74
2022/10/28 02:07:11;;;;;;;12.93;8.25;;;;;;;13.56;100.00;101036.88;5035870;28;20202;-74
2022/10/28 02:09:51;;;;;;;11.02;8.90;;;;;;;13.64;100.00;101046.47;5020561;28;20217;-74
2022/10/28 02:12:25;;;;;;;12.35;7.95;;;;;;;13.65;100.00;101045.50;5034150;28;20272;-76
2022/10/28 02:15:21;;;;;;;11.52;8.30;;;;;;;13.68;100.00;101038.13;5035656;28;20224;-75
2022/10/28 02:18:01;;;;;;;10.98;9.40;;;;;;;13.60;100.00;101023.22;5034550;28;20737;-74
2022/10/28 02:20:38;;;;;;;14.00;8.40;;;;;;;13.64;100.00;101031.13;5034248;28;20280;-74
2022/10/28 02:23:16;;;;;;;16.00;10.30;;;;;;;13.65;100.00;101032.84;5036395;28;20190;-73
2022/10/28 02:25:46;;;;;;;17.23;10.60;;;;;;;13.71;100.00;101027.16;5039533;28;20210;-71
2022/10/28 02:28:19;;;;;;;14.13;9.85;;;;;;;13.76;100.00;101043.16;5047228;28;20367;-72
2022/10/28 02:30:52;;;;;;;12.40;9.80;;;;;;;13.81;100.00;101027.56;5042277;28;20197;-73
2022/10/28 02:33:26;;;;;;;15.02;9.30;;;;;;;13.91;100.00;101028.03;5034721;28;20542;-72
2022/10/28 02:35:58;;;;;;;15.00;8.82;;;;;;;13.96;100.00;101029.53;5034596;28;20190;-74
2022/10/28 02:38:28;;;;;;;14.18;9.38;;;;;;;14.04;100.00;101045.41;5034177;28;20210;-73
2022/10/28 02:41:02;;;;;;;15.20;9.43;;;;;;;14.17;100.00;101034.81;5034517;28;20202;-75
2022/10/28 02:43:32;;;;;;;12.05;9.27;;;;;;;14.15;100.00;101025.91;5033620;28;20733;-74
2022/10/28 02:46:02;;;;;;;11.63;8.43;;;;;;;14.12;100.00;101020.66;5033810;28;20533;-73
2022/10/28 02:48:35;;;;;;;15.07;8.93;;;;;;;14.08;100.00;101013.63;5033751;28;20198;-74
2022/10/28 02:51:07;;;;;;;12.05;8.75;;;;;;;14.04;100.00;101018.34;5034390;28;20201;-75
2022/10/28 02:53:45;;;;;;;13.15;9.25;;;;;;;14.01;100.00;101012.19;5034085;28;20264;-73
2022/10/28 02:56:15;;;;;;;14.80;9.40;;;;;;;14.04;100.00;101003.91;5034434;28;20568;-72
2022/10/28 02:58:42;;;;;;;20.25;10.45;;;;;;;14.07;100.00;101020.00;5033807;28;20202;-74
2022/10/28 03:01:08;;;;;;;16.30;9.43;;;;;;;14.15;100.00;101012.34;5033245;28;20209;-73
2022/10/28 03:03:36;;;;;;;13.18;10.20;;;;;;;14.10;100.00;100999.03;5034177;28;20233;-74
2022/10/28 03:06:03;;;;;;;14.43;9.20;;;;;;;14.19;100.00;101008.53;5034575;28;20205;-73
2022/10/28 03:08:29;;;;;;;12.45;9.07;;;;;;;14.22;100.00;100999.38;5034518;28;20193;-74
2022/10/28 03:10:56;;;;;;;12.63;8.82;;;;;;;14.24;100.00;100998.34;5034592;28;20201;-74
2022/10/28 03:13:23;;;;;;;14.82;10.10;;;;;;;14.24;100.00;100990.22;5035285;28;20218;-73
2022/10/28 03:15:49;;;;;;;12.57;9.55;;;;;;;14.29;100.00;100989.97;5014875;28;20580;-74
2022/10/28 03:18:16;;;;;;;16.05;9.73;;;;;;;14.24;100.00;100994.75;5014065;28;20233;-74
2022/10/28 03:20:43;;;;;;;13.15;10.20;;;;;;;14.26;100.00;100985.59;5015482;28;20221;-73
2022/10/28 03:23:10;;;;;;;12.77;8.15;;;;;;;14.32;100.00;100989.84;5031153;28;20202;-74
2022/10/28 03:25:36;;;;;;;14.88;8.73;;;;;;;14.31;100.00;100999.81;5035274;28;20205;-72
2022/10/28 03:28:04;;;;;;;14.75;9.75;;;;;;;14.33;100.00;100997.88;5036607;28;20198;-74
2022/10/28 03:30:30;;;;;;;77.57;57.17;;;;;;;14.35;100.00;101000.50;5034122;28;20194;-74
2022/10/28 03:32:57;;;;;;;78.07;51.80;;;;;;;14.27;100.00;101003.63;5033689;28;20296;-75
2022/10/28 03:35:24;;;;;;;19.63;12.20;;;;;;;14.21;100.00;101006.63;5034169;28;20707;-76
2022/10/28 03:37:52;;;;;;;26.20;10.00;;;;;;;14.19;100.00;101011.25;5033226;28;20218;-72
2022/10/28 03:40:18;;;;;;;11.13;8.48;;;;;;;14.22;100.00;101029.19;5033585;28;20202;-72
2022/10/28 03:42:45;;;;;;;13.38;9.80;;;;;;;14.24;100.00;101035.41;5034515;28;20202;-72
2022/10/28 03:45:12;;;;;;;15.13;9.80;;;;;;;14.41;100.00;101045.41;5032609;28;20337;-74
2022/10/28 03:47:39;;;;;;;14.60;9.20;;;;;;;14.50;100.00;101034.09;5044456;28;20200;-72
2022/10/28 03:50:07;;;;;;;14.07;9.27;;;;;;;14.52;100.00;101024.03;5041890;28;20198;-73
2022/10/28 03:52:33;;;;;;;13.50;8.52;;;;;;;14.54;100.00;101022.09;5040501;28;20571;-76
2022/10/28 03:55:01;;;;;;;13.73;9.85;;;;;;;14.55;100.00;101018.47;5034024;28;20232;-73
2022/10/28 03:57:30;;;;;;;13.60;9.40;;;;;;;14.51;100.00;100993.31;5033701;28;20205;-73
2022/10/28 03:59:57;;;;;;;14.43;10.55;;;;;;;14.56;100.00;100974.13;5032493;28;20216;-75
2022/10/28 04:02:23;;;;;;;16.63;10.38;;;;;;;14.60;100.00;100967.59;5028681;28;20195;-73
2022/10/28 04:04:50;;;;;;;15.10;10.15;;;;;;;14.52;100.00;100981.53;5012859;28;20223;-73
2022/10/28 04:07:16;;;;;;;13.98;10.35;;;;;;;14.51;100.00;100987.03;5013472;28;20206;-73
2022/10/28 04:09:43;;;;;;;12.35;10.02;;;;;;;14.57;100.00;100986.75;5014090;28;20214;-75
2022/10/28 04:12:11;;;;;;;13.75;10.05;;;;;;;14.56;100.00;101003.97;5020932;28;20648;-73
2022/10/28 04:14:38;;;;;;;16.58;10.05;;;;;;;14.70;100.00;101030.38;5030342;28;20699;-74
2022/10/28 04:17:04;;;;;;;18.40;11.43;;;;;;;14.65;100.00;101024.28;5029496;28;20209;-75
2022/10/28 04:19:31;;;;;;;19.65;10.73;;;;;;;14.61;100.00;101007.31;5031767;28;20711;-76
2022/10/28 04:21:57;;;;;;;17.38;11.73;;;;;;;14.59;100.00;101001.09;5032180;28;20208;-74
2022/10/28 04:24:24;;;;;;;15.38;12.10;;;;;;;14.52;100.00;101005.06;5033476;28;20229;-73
2022/10/28 04:26:50;;;;;;;19.73;11.13;;;;;;;14.52;100.00;100988.81;5032515;28;20198;-74
2022/10/28 04:29:19;;;;;;;14.77;11.05;;;;;;;14.57;100.00;100995.75;5032209;28;20194;-74
2022/10/28 04:31:45;;;;;;;15.13;11.02;;;;;;;14.51;100.00;100981.63;5031941;28;20202;-74
2022/10/28 04:34:12;;;;;;;15.60;11.65;;;;;;;14.48;100.00;100979.06;5019613;28;20229;-74
2022/10/28 04:36:38;;;;;;;17.55;11.55;;;;;;;14.55;100.00;100981.41;5017191;28;20204;-75
2022/10/28 04:39:05;;;;;;;14.05;9.50;;;;;;;14.50;100.00;100974.47;5020446;28;20317;-74
2022/10/28 04:41:31;;;;;;;17.17;10.05;;;;;;;14.49;100.00;100972.69;5017643;28;20203;-75
2022/10/28 04:43:58;;;;;;;16.08;10.85;;;;;;;14.34;100.00;100975.25;5017929;28;20238;-74
2022/10/28 04:46:26;;;;;;;20.73;11.40;;;;;;;14.37;100.00;100977.78;5016364;28;20214;-76
2022/10/28 04:48:52;;;;;;;15.77;10.65;;;;;;;14.36;100.00;100962.50;5016452;28;20579;-75
2022/10/28 04:51:19;;;;;;;15.43;10.70;;;;;;;14.32;100.00;100966.31;5016717;28;20203;-75
2022/10/28 04:53:45;;;;;;;16.20;10.90;;;;;;;14.27;100.00;100962.06;5016043;28;20715;-76
2022/10/28 04:56:12;;;;;;;21.98;13.55;;;;;;;14.25;100.00;100950.47;5017727;28;20202;-74
2022/10/28 04:58:38;;;;;;;25.13;16.17;;;;;;;14.24;100.00;100941.44;5029984;28;20593;-75
2022/10/28 05:01:06;;;;;;;18.13;12.05;;;;;;;14.31;100.00;100953.75;5036331;28;20205;-73
2022/10/28 05:03:35;;;;;;;21.65;12.27;;;;;;;14.22;100.00;100956.91;5035719;28;20226;-72
2022/10/28 05:06:02;;;;;;;18.98;11.27;;;;;;;14.27;100.00;100945.81;5035389;28;20204;-73
2022/10/28 05:08:28;;;;;;;18.60;13.68;;;;;;;14.28;100.00;100940.34;5035379;28;20204;-73
2022/10/28 05:10:55;;;;;;;15.85;10.93;;;;;;;14.26;100.00;100952.22;5027449;28;20198;-75
2022/10/28 05:13:21;;;;;;;16.25;10.93;;;;;;;14.33;100.00;100948.22;5035299;28;20228;-75
2022/10/28 05:15:49;;;;;;;18.52;11.63;;;;;;;14.37;100.00;100938.97;5035963;28;20209;-74
2022/10/28 05:18:15;;;;;;;14.52;10.45;;;;;;;14.34;100.00;100950.88;5036508;28;20221;-75
2022/10/28 05:20:44;;;;;;;16.33;10.60;;;;;;;14.31;100.00;100944.72;5036082;28;20300;-74
2022/10/28 05:23:10;;;;;;;19.13;12.50;;;;;;;14.25;100.00;100945.06;5034507;28;20208;-74
2022/10/28 05:25:37;;;;;;;15.23;11.80;;;;;;;14.30;100.00;100941.13;5035074;28;20197;-74
2022/10/28 05:28:03;;;;;;;15.18;11.38;;;;;;;14.27;100.00;100940.41;5035135;28;20569;-75
2022/10/28 05:30:30;;;;;;;19.60;12.43;;;;;;;14.30;100.00;100937.56;5036697;28;20229;-74
2022/10/28 05:33:03;;;;;;;14.90;10.70;;;;;;;14.22;100.00;100939.78;5037413;28;20201;-75
2022/10/28 05:35:29;;;;;;;17.05;11.10;;;;;;;14.21;100.00;100946.16;5038894;28;20579;-75
2022/10/28 05:37:57;;;;;;;18.50;11.02;;;;;;;14.24;100.00;100940.56;5037663;28;20202;-75
2022/10/28 05:40:24;;;;;;;19.42;10.43;;;;;;;14.27;100.00;100933.19;5037502;28;20229;-76
2022/10/28 05:42:51;;;;;;;18.95;11.40;;;;;;;14.24;100.00;100948.69;5036984;28;20204;-76
2022/10/28 05:45:17;;;;;;;14.95;9.68;;;;;;;14.18;100.00;100944.50;5036568;28;20241;-73
2022/10/28 05:47:44;;;;;;;17.50;10.15;;;;;;;14.10;100.00;100942.16;5044685;28;20203;-73
2022/10/28 05:50:11;;;;;;;16.55;11.07;;;;;;;14.08;100.00;100946.78;5050633;28;20293;-74
2022/10/28 05:52:37;;;;;;;17.25;11.65;;;;;;;14.06;100.00;100939.69;5050025;28;20202;-75
2022/10/28 05:55:07;;;;;;;16.77;10.50;;;;;;;14.05;100.00;100937.97;5038887;28;20236;-75
2022/10/28 05:57:34;;;;;;;17.67;11.25;;;;;;;14.04;100.00;100941.59;5037976;28;20206;-73
2022/10/28 06:00:00;;;;;;;21.17;10.70;;;;;;;13.91;100.00;100941.38;5038681;28;20280;-75
2022/10/28 06:02:27;;;;;;;40.88;27.67;;;;;;;13.93;100.00;100950.28;5044510;28;20205;-74
2022/10/28 06:04:53;;;;;;;13.85;11.15;;;;;;;13.97;100.00;100951.88;5053296;28;20253;-73
2022/10/28 06:07:20;;;;;;;10.82;9.50;;;;;;;13.96;100.00;100944.72;5052241;28;20698;-73
2022/10/28 06:09:46;;;;;;;13.57;9.55;;;;;;;13.91;100.00;100944.94;5046343;28;20201;-73
2022/10/28 06:12:14;;;;;;;15.68;9.80;;;;;;;13.92;100.00;100954.81;5040405;28;20571;-77
2022/10/28 06:14:41;;;;;;;16.17;9.32;;;;;;;13.94;100.00;100962.88;5035525;28;20594;-78
2022/10/28 06:17:07;;;;;;;12.35;9.13;;;;;;;14.02;100.00;100970.59;5034472;28;20209;-76
2022/10/28 06:19:34;;;;;;;10.95;9.20;;;;;;;13.98;100.00;100965.34;5034350;28;20277;-74
2022/10/28 06:22:00;;;;;;;13.98;10.45;;;;;;;13.94;100.00;100969.16;5036164;28;20213;-74
2022/10/28 06:24:27;;;;;;;17.25;12.40;;;;;;;13.99;100.00;100960.78;5050068;22;20320;-76
2022/10/28 06:26:54;;;;;;;22.40;12.85;;;;;;;13.99;100.00;100963.50;5018046;28;20199;-75
2022/10/28 06:29:22;;;;;;;18.75;11.00;;;;;;;14.05;100.00;100965.03;5015312;28;20208;-77
2022/10/28 06:31:48;;;;;;;14.20;9.38;;;;;;;14.10;100.00;100961.13;5016453;28;20199;-77
2022/10/28 06:34:15;;;;;;;12.45;9.00;;;;;;;14.15;100.00;100969.00;5016085;28;20708;-77
2022/10/28 06:36:41;;;;;;;11.55;10.07;;;;;;;14.14;100.00;100972.69;5015439;28;20203;-76
2022/10/28 06:39:08;;;;;;;12.95;10.02;;;;;;;14.18;100.00;100971.59;5014968;28;20314;-76
2022/10/28 06:41:34;;;;;;;17.25;10.25;;;;;;;14.28;100.00;100972.84;5015449;28;20210;-76
2022/10/28 06:44:01;;;;;;;18.42;9.15;;;;;;;14.38;100.00;100979.56;5015466;28;20665;-75
2022/10/28 06:46:29;;;;;;;12.80;8.65;;;;;;;14.46;100.00;100989.13;5015423;28;20281;-76
2022/10/28 06:48:56;;;;;;;16.50;9.00;;;;;;;14.51;100.00;100993.31;5014830;28;20199;-75
2022/10/28 06:51:23;;;;;;;11.00;8.73;;;;;;;14.53;100.00;100993.25;5018753;28;20214;-75
2022/10/28 06:53:50;;;;;;;12.35;8.30;;;;;;;14.59;100.00;100996.56;5021239;28;20207;-76
2022/10/28 06:56:17;;;;;;;12.77;8.63;;;;;;;14.64;100.00;100988.19;5019366;28;20202;-75
2022/10/28 06:58:44;;;;;;;17.95;8.75;;;;;;;14.64;100.00;100990.88;5026675;28;20250;-75
2022/10/28 07:01:10;;;;;;;12.52;9.00;;;;;;;14.69;100.00;100988.81;5024306;28;20213;-76
2022/10/28 07:03:38;;;;;;;13.93;9.00;;;;;;;14.65;100.00;100998.03;5016110;28;20235;-75
2022/10/28 07:06:06;;;;;;;13.82;8.93;;;;;;;14.64;100.00;101001.72;5012687;28;20214;-74
2022/10/28 07:08:32;;;;;;;12.68;9.07;;;;;;;14.47;100.00;100996.28;5013400;28;20195;-75
2022/10/28 07:11:01;;;;;;;13.63;10.02;;;;;;;14.55;100.00;100994.97;5013827;28;20211;-75
2022/10/28 07:13:28;;;;;;;14.27;9.05;;;;;;;14.57;100.00;100997.59;5013441;28;20201;-74
2022/10/28 07:15:56;;;;;;;15.70;9.60;;;;;;;14.64;100.00;100985.47;5013158;28;20218;-75
2022/10/28 07:18:23;;;;;;;17.30;10.23;;;;;;;14.73;100.00;100998.53;5013679;28;20202;-75
2022/10/28 07:20:52;;;;;;;12.07;8.52;;;;;;;14.79;100.00;101010.91;5013726;28;20198;-75
2022/10/28 07:23:18;;;;;;;15.80;9.10;;;;;;;14.71;100.00;101013.13;5013502;28;20194;-75
2022/10/28 07:25:51;;;;;;;15.85;9.68;;;;;;;14.68;100.00;101019.59;5013416;28;20501;-74
2022/10/28 07:28:18;;;;;;;11.82;8.60;;;;;;;14.75;100.00;101021.03;5009337;28;20658;-74
2022/10/28 07:30:44;;;;;;;9.90;8.23;;;;;;;14.83;100.00;101017.00;4993752;28;20678;-74
2022/10/28 07:33:11;;;;;;;13.70;9.45;;;;;;;14.91;100.00;101014.78;4993793;28;20203;-75
2022/10/28 07:35:38;;;;;;;15.32;9.20;;;;;;;15.04;100.00;101020.41;4997658;28;20719;-76
2022/10/28 07:38:06;;;;;;;11.48;8.85;;;;;;;15.22;100.00;101017.56;5017388;28;20691;-76
2022/10/28 07:40:32;;;;;;;14.55;9.15;;;;;;;15.25;100.00;101021.09;5012141;28;20965;-75
2022/10/28 07:42:59;;;;;;;11.60;8.93;;;;;;;15.32;100.00;101015.22;5013553;28;20597;-74
2022/10/28 07:45:26;;;;;;;13.70;9.13;;;;;;;15.46;100.00;101014.44;5013518;28;20225;-75
2022/10/28 07:47:52;;;;;;;10.68;7.75;;;;;;;15.60;100.00;101020.00;5014034;28;20584;-74
2022/10/28 07:50:19;;;;;;;12.30;7.72;;;;;;;15.79;100.00;101024.41;5013853;28;20201;-75
2022/10/28 07:52:45;;;;;;;11.82;8.50;;;;;;;15.87;100.00;101027.53;5014605;28;20206;-74
2022/10/28 07:55:13;;;;;;;11.52;9.40;;;;;;;16.06;100.00;101021.94;5014697;28;20229;-75
2022/10/28 07:57:40;;;;;;;11.82;9.52;;;;;;;16.14;100.00;101029.63;5014819;28;20202;-75
2022/10/28 08:00:07;;;;;;;10.23;9.15;;;;;;;16.27;100.00;101014.34;5012693;28;20231;-74
2022/10/28 08:02:34;;;;;;;16.10;9.65;;;;;;;16.49;100.00;101013.94;5012970;28;20202;-74
2022/10/28 08:05:01;;;;;;;10.90;8.25;;;;;;;16.68;100.00;101020.00;5013249;28;20232;-75
2022/10/28 08:07:27;;;;;;;16.40;8.38;;;;;;;16.80;100.00;101009.38;5013773;28;20202;-75
2022/10/28 08:09:54;;;;;;;12.70;9.57;;;;;;;16.88;100.00;101004.34;5015484;28;20206;-76
2022/10/28 08:12:22;;;;;;;12.98;8.20;;;;;;;17.04;100.00;101013.28;5013445;28;20198;-74
2022/10/28 08:14:49;;;;;;;11.88;9.07;;;;;;;17.18;100.00;101011.56;5013342;28;20231;-76
2022/10/28 08:17:15;;;;;;;15.75;8.20;;;;;;;17.10;100.00;101001.16;5015911;28;20265;-74
2022/10/28 08:19:42;;;;;;;11.93;8.77;;;;;;;17.32;100.00;101014.28;5022015;28;20226;-73
2022/10/28 08:22:09;;;;;;;12.30;8.35;;;;;;;17.47;100.00;101005.09;5017112;28;20213;-74
2022/10/28 08:24:36;;;;;;;10.70;7.45;;;;;;;17.62;100.00;101000.53;5014859;28;20226;-75
2022/10/28 08:27:02;;;;;;;10.70;7.30;;;;;;;17.86;100.00;101005.34;5012484;28;20216;-75
2022/10/28 08:29:30;;;;;;;12.70;9.35;;;;;;;17.77;100.00;101005.94;5012636;28;20438;-75
2022/10/28 08:31:57;;;;;;;13.17;9.40;;;;;;;17.75;100.00;100999.72;5013705;28;20206;-76
2022/10/28 08:34:28;;;;;;;9.63;8.63;;;;;;;17.90;100.00;100999.59;5017839;28;20489;-74
2022/10/28 08:36:54;;;;;;;15.53;10.27;;;;;;;17.86;100.00;100997.19;5017284;28;20503;-75
2022/10/28 08:39:21;;;;;;;16.83;10.23;;;;;;;17.89;100.00;100988.81;5017035;28;20952;-76
2022/10/28 08:41:54;;;;;;;14.20;9.43;;;;;;;17.89;100.00;100980.66;5014993;28;20441;-75
2022/10/28 08:44:41;;;;;;;14.30;10.20;;;;;;;17.87;100.00;100996.22;5013934;28;20485;-75
2022/10/28 08:47:18;;;;;;;13.90;10.40;;;;;;;17.84;100.00;100996.41;5014246;28;20432;-75
2022/10/28 08:49:49;;;;;;;14.90;10.10;;;;;;;17.70;100.00;101000.00;5016848;28;20438;-74
2022/10/28 08:52:26;;;;;;;14.27;10.90;;;;;;;17.81;100.00;101002.94;5018836;28;20448;-75
2022/10/28 08:54:57;;;;;;;29.70;23.00;;;;;;;17.79;100.00;101003.97;5016079;28;20461;-74
2022/10/28 08:57:33;;;;;;;27.63;23.10;;;;;;;17.91;100.00;101004.09;5016644;28;20436;-75
2022/10/28 09:00:04;;;;;;;24.13;14.30;;;;;;;18.04;100.00;101012.28;5019190;28;20918;-75
2022/10/28 09:02:43;;;;;;;20.40;13.00;;;;;;;18.17;100.00;101011.50;5029919;28;20440;-75
2022/10/28 09:05:20;;;;;;;18.33;11.33;;;;;;;18.24;100.00;101015.53;5030723;28;20457;-74
2022/10/28 09:07:47;;;;;;;17.70;10.13;;;;;;;18.25;100.00;101009.13;5028936;28;20421;-74
2022/10/28 09:10:15;;;;;;;16.63;11.67;;;;;;;18.19;100.00;101012.25;5029736;28;20445;-76
2022/10/28 09:12:54;;;;;;;16.80;11.80;;;;;;;18.42;100.00;101008.84;5029891;28;20947;-74
2022/10/28 09:15:34;;;;;;;17.67;12.70;;;;;;;18.55;100.00;100996.09;5028463;28;20466;-74
2022/10/28 09:18:12;;;;;;;15.40;11.30;;;;;;;18.87;100.00;101000.31;5019993;28;20449;-74
2022/10/28 09:20:49;;;;;;;16.60;12.17;;;;;;;19.46;100.00;100989.66;5013110;28;20490;-74
2022/10/28 09:23:22;;;;;;;14.00;11.77;;;;;;;20.85;100.00;100976.44;5016830;28;20426;-74
2022/10/28 09:26:03;;;;;;;16.83;9.60;;;;;;;21.28;100.00;100964.75;5015620;28;20473;-76
2022/10/28 09:28:51;;;;;;;14.47;10.40;;;;;;;22.20;100.00;100970.81;5015129;28;20907;-75
2022/10/28 09:31:28;;;;;;;13.97;9.57;;;;;;;22.38;100.00;100968.41;5015632;28;20453;-75
2022/10/28 09:34:07;;;;;;;14.20;9.80;;;;;;;23.00;100.00;100966.72;5015407;28;20465;-75
2022/10/28 09:36:38;;;;;;;15.90;8.57;;;;;;;22.97;100.00;100964.19;5016022;28;20516;-75
2022/10/28 09:39:11;;;;;;;13.73;8.47;;;;;;;24.24;100.00;100971.84;5017708;28;20541;-75
2022/10/28 09:41:39;;;;;;;13.30;7.70;;;;;;;25.65;95.12;100967.47;5018871;28;20461;-74
2022/10/28 09:44:14;;;;;;;14.90;7.90;;;;;;;26.08;86.97;100963.16;5018087;28;20465;-74
2022/10/28 09:46:46;;;;;;;14.80;7.33;;;;;;;27.37;77.57;100956.03;5018220;28;20447;-75
2022/10/28 09:49:19;;;;;;;9.30;6.33;;;;;;;28.43;68.21;100965.69;5018187;28;20501;-74
2022/10/28 09:51:50;;;;;;;11.13;6.70;;;;;;;28.23;65.83;100962.38;5017971;28;20453;-74
2022/10/28 09:54:18;;;;;;;7.70;5.97;;;;;;;28.14;58.65;100968.94;5016934;28;20465;-74
2022/10/28 09:56:44;;;;;;;8.80;6.70;;;;;;;27.94;63.44;100960.06;5018619;28;20446;-75
2022/10/28 09:59:14;;;;;;;10.80;5.20;;;;;;;27.63;62.75;100961.53;5017528;28;20444;-74
2022/10/28 10:01:46;;;;;;;7.17;5.63;;;;;;;27.41;61.28;100956.59;5017635;28;20448;-74
2022/10/28 10:04:18;;;;;;;9.97;5.97;;;;;;;26.50;65.91;100968.00;5016664;28;20620;-74
2022/10/28 10:06:47;;;;;;;11.83;5.90;;;;;;;25.96;68.60;100959.72;5018106;28;20445;-74
2022/10/28 10:09:20;;;;;;;10.27;5.80;;;;;;;25.82;72.43;100969.38;5016136;28;20441;-74
2022/10/28 10:11:49;;;;;;;10.70;5.30;;;;;;;26.21;66.93;100969.16;5014470;28;20467;-74
2022/10/28 10:14:19;;;;;;;11.23;5.17;;;;;;;25.94;68.73;100968.19;5016479;28;20532;-75
2022/10/28 10:16:50;;;;;;;11.87;5.83;;;;;;;25.71;69.27;100961.31;5015962;28;20529;-76
2022/10/28 10:19:17;;;;;;;9.97;6.20;;;;;;;25.80;70.02;100960.38;5015502;28;20445;-75
2022/10/28 10:21:45;;;;;;;8.00;5.20;;;;;;;25.40;72.63;100961.66;5015150;28;20448;-75
2022/10/28 10:24:30;;;;;;;11.00;5.50;;;;;;;26.13;68.87;100958.88;5014648;28;20504;-75
2022/10/28 10:26:58;;;;;;;11.20;6.00;;;;;;;25.73;68.96;100954.66;5016662;28;20430;-75
2022/10/28 10:29:25;;;;;;;12.90;5.60;;;;;;;24.72;75.27;100948.94;5001518;28;20470;-74
2022/10/28 10:32:07;;;;;;;14.37;6.00;;;;;;;24.67;76.32;100958.66;4994020;28;20452;-75
2022/10/28 10:34:33;;;;;;;8.83;4.87;;;;;;;24.93;76.64;100945.13;4995674;28;20474;-75
2022/10/28 10:37:00;;;;;;;6.47;4.73;;;;;;;25.08;73.39;100940.88;4997260;28;20538;-75
2022/10/28 10:39:36;;;;;;;8.80;5.53;;;;;;;24.65;74.92;100958.81;4996466;28;20534;-74
2022/10/28 10:42:14;;;;;;;10.60;4.53;;;;;;;24.41;78.50;100944.59;4996745;28;20995;-75
2022/10/28 10:44:41;;;;;;;9.37;4.80;;;;;;;24.67;75.82;100932.00;4996881;28;20481;-75
2022/10/28 10:47:19;;;;;;;10.47;5.10;;;;;;;24.72;75.31;100942.56;4997002;28;20474;-74
2022/10/28 10:49:46;;;;;;;10.97;4.63;;;;;;;24.85;75.73;100936.72;5005681;28;20426;-74
2022/10/28 10:52:19;;;;;;;11.23;4.83;;;;;;;24.69;74.07;100927.22;5005662;28;20443;-75
2022/10/28 10:54:58;;;;;;;10.80;4.13;;;;;;;25.49;67.82;100933.16;4999780;28;20466;-74
2022/10/28 10:57:25;;;;;;;11.70;4.47;;;;;;;25.33;66.80;100933.81;4994010;28;20445;-74
2022/10/28 10:59:54;;;;;;;9.20;4.40;;;;;;;24.71;71.21;100922.41;4994190;28;20493;-75
2022/10/28 11:02:26;;;;;;;13.63;4.63;;;;;;;25.49;67.61;100924.88;4993618;28;20821;-76
2022/10/28 11:04:56;;;;;;;11.90;4.77;;;;;;;25.17;68.79;100922.56;4998153;28;20483;-75
2022/10/28 11:07:23;;;;;;;10.00;4.60;;;;;;;24.62;73.41;100928.81;5013611;28;20541;-74
2022/10/28 11:09:50;;;;;;;10.27;4.33;;;;;;;23.89;77.69;100925.63;5012868;28;20473;-75
2022/10/28 11:12:26;;;;;;;8.80;4.27;;;;;;;24.89;71.47;100924.38;4994943;28;20447;-74
2022/10/28 11:14:56;;;;;;;7.10;4.47;;;;;;;25.69;65.77;100921.97;4993932;28;20488;-76
2022/10/28 11:17:26;;;;;;;11.40;5.00;;;;;;;26.63;63.65;100921.53;4994006;28;20435;-75
2022/10/28 11:19:55;;;;;;;7.83;3.60;;;;;;;26.65;61.01;100913.97;4995061;28;20840;-74
2022/10/28 11:22:43;;;;;;;10.47;3.80;;;;;;;27.16;56.92;100909.44;5008143;28;20469;-75